sensor_id;sensor_type;location;lat;lon;timestamp;pressure;altitude;pressure_sealevel;temperature;humidity
64628;BME280;68467;50.960;0.314;2023-05-23T00:01:54;100611.71;;;8.78;100.00
64628;BME280;68467;50.960;0.314;2023-05-23T00:04:21;100617.81;;;8.54;100.00
64628;BME280;68467;50.960;0.314;2023-05-23T00:06:48;100615.69;;;8.08;100.00
64628;BME280;68467;50.960;0.314;2023-05-23T00:09:15;100615.66;;;8.76;100.00
64628;BME280;68467;50.960;0.314;2023-05-23T00:11:42;100609.28;;;8.55;100.00
64628;BME280;68467;50.960;0.314;2023-05-23T00:14:10;100610.67;;;8.31;100.00
64628;BME280;68467;50.960;0.314;2023-05-23T00:16:39;100608.13;;;8.64;100.00
64628;BME280;68467;50.960;0.314;2023-05-23T00:19:06;100614.50;;;8.15;100.00
64628;BME280;68467;50.960;0.314;2023-05-23T00:21:32;100615.46;;;8.53;100.00
64628;BME280;68467;50.960;0.314;2023-05-23T00:24:00;100618.09;;;8.18;100.00
64628;BME280;68467;50.960;0.314;2023-05-23T00:26:28;100615.56;;;8.38;100.00
64628;BME280;68467;50.960;0.314;2023-05-23T00:28:55;100612.41;;;8.25;100.00
64628;BME280;68467;50.960;0.314;2023-05-23T00:31:23;100605.47;;;8.29;100.00
64628;BME280;68467;50.960;0.314;2023-05-23T00:33:50;100607.35;;;7.78;100.00
64628;BME280;68467;50.960;0.314;2023-05-23T00:36:17;100601.35;;;8.39;100.00
64628;BME280;68467;50.960;0.314;2023-05-23T00:38:45;100609.03;;;7.74;100.00
64628;BME280;68467;50.960;0.314;2023-05-23T00:41:11;100620.28;;;7.58;100.00
64628;BME280;68467;50.960;0.314;2023-05-23T00:43:39;100615.90;;;7.78;100.00
64628;BME280;68467;50.960;0.314;2023-05-23T00:46:06;100616.55;;;7.89;100.00
64628;BME280;68467;50.960;0.314;2023-05-23T00:48:35;100615.91;;;8.72;100.00
64628;BME280;68467;50.960;0.314;2023-05-23T00:51:02;100621.49;;;7.95;100.00
64628;BME280;68467;50.960;0.314;2023-05-23T00:53:30;100618.46;;;8.70;100.00
64628;BME280;68467;50.960;0.314;2023-05-23T00:55:57;100616.34;;;8.50;100.00
64628;BME280;68467;50.960;0.314;2023-05-23T00:58:24;100613.61;;;8.30;100.00
64628;BME280;68467;50.960;0.314;2023-05-23T01:00:51;100617.84;;;7.69;100.00
64628;BME280;68467;50.960;0.314;2023-05-23T01:03:18;100615.92;;;8.21;100.00
64628;BME280;68467;50.960;0.314;2023-05-23T01:05:46;100610.46;;;8.16;100.00
64628;BME280;68467;50.960;0.314;2023-05-23T01:08:13;100617.78;;;8.44;100.00
64628;BME280;68467;50.960;0.314;2023-05-23T01:10:40;100614.06;;;8.79;100.00
64628;BME280;68467;50.960;0.314;2023-05-23T01:13:16;100618.33;;;8.54;100.00
64628;BME280;68467;50.960;0.314;2023-05-23T01:15:49;100611.58;;;8.51;100.00
64628;BME280;68467;50.960;0.314;2023-05-23T01:18:20;100617.35;;;8.20;100.00
64628;BME280;68467;50.960;0.314;2023-05-23T01:20:54;100617.99;;;8.77;100.00
64628;BME280;68467;50.960;0.314;2023-05-23T01:23:36;100623.94;;;8.61;100.00
64628;BME280;68467;50.960;0.314;2023-05-23T01:26:17;100623.75;;;7.91;100.00
64628;BME280;68467;50.960;0.314;2023-05-23T01:28:51;100627.39;;;8.16;100.00
64628;BME280;68467;50.960;0.314;2023-05-23T01:31:21;100630.14;;;8.39;100.00
64628;BME280;68467;50.960;0.314;2023-05-23T01:33:50;100627.51;;;8.57;100.00
64628;BME280;68467;50.960;0.314;2023-05-23T01:36:20;100626.20;;;8.54;100.00
64628;BME280;68467;50.960;0.314;2023-05-23T01:38:47;100627.72;;;8.18;100.00
64628;BME280;68467;50.960;0.314;2023-05-23T01:41:14;100629.12;;;8.30;100.00
64628;BME280;68467;50.960;0.314;2023-05-23T01:43:41;100631.68;;;9.07;100.00
64628;BME280;68467;50.960;0.314;2023-05-23T01:46:09;100639.47;;;7.76;100.00
64628;BME280;68467;50.960;0.314;2023-05-23T01:48:37;100635.63;;;8.80;100.00
64628;BME280;68467;50.960;0.314;2023-05-23T01:51:06;100637.13;;;8.71;100.00
64628;BME280;68467;50.960;0.314;2023-05-23T01:53:34;100635.35;;;8.73;100.00
64628;BME280;68467;50.960;0.314;2023-05-23T01:56:03;100642.13;;;8.75;100.00
64628;BME280;68467;50.960;0.314;2023-05-23T01:59:16;100641.95;;;9.13;100.00
64628;BME280;68467;50.960;0.314;2023-05-23T02:01:43;100643.03;;;8.87;100.00
64628;BME280;68467;50.960;0.314;2023-05-23T02:04:11;100644.10;;;9.50;100.00
64628;BME280;68467;50.960;0.314;2023-05-23T02:06:39;100646.28;;;9.68;100.00
64628;BME280;68467;50.960;0.314;2023-05-23T02:09:06;100652.11;;;9.15;100.00
64628;BME280;68467;50.960;0.314;2023-05-23T02:11:34;100655.87;;;9.07;100.00
64628;BME280;68467;50.960;0.314;2023-05-23T02:14:01;100654.65;;;8.86;100.00
64628;BME280;68467;50.960;0.314;2023-05-23T02:16:28;100660.07;;;8.48;100.00
64628;BME280;68467;50.960;0.314;2023-05-23T02:18:56;100662.60;;;8.24;100.00
64628;BME280;68467;50.960;0.314;2023-05-23T02:21:23;100662.05;;;9.11;100.00
64628;BME280;68467;50.960;0.314;2023-05-23T02:23:50;100664.31;;;7.85;100.00
64628;BME280;68467;50.960;0.314;2023-05-23T02:26:17;100657.79;;;8.25;100.00
64628;BME280;68467;50.960;0.314;2023-05-23T02:28:44;100660.53;;;8.54;100.00
64628;BME280;68467;50.960;0.314;2023-05-23T02:31:11;100663.57;;;8.56;100.00
64628;BME280;68467;50.960;0.314;2023-05-23T02:33:38;100661.57;;;8.33;100.00
64628;BME280;68467;50.960;0.314;2023-05-23T02:36:05;100661.33;;;8.41;100.00
64628;BME280;68467;50.960;0.314;2023-05-23T02:38:33;100660.47;;;8.62;100.00
64628;BME280;68467;50.960;0.314;2023-05-23T02:41:02;100662.48;;;7.89;100.00
64628;BME280;68467;50.960;0.314;2023-05-23T02:43:29;100665.55;;;7.78;100.00
64628;BME280;68467;50.960;0.314;2023-05-23T02:45:57;100668.92;;;7.54;100.00
64628;BME280;68467;50.960;0.314;2023-05-23T02:48:24;100669.50;;;7.70;100.00
64628;BME280;68467;50.960;0.314;2023-05-23T02:50:51;100665.72;;;7.69;100.00
64628;BME280;68467;50.960;0.314;2023-05-23T02:53:19;100668.84;;;8.45;100.00
64628;BME280;68467;50.960;0.314;2023-05-23T02:55:47;100671.23;;;8.56;100.00
64628;BME280;68467;50.960;0.314;2023-05-23T02:58:14;100678.25;;;7.59;100.00
64628;BME280;68467;50.960;0.314;2023-05-23T03:00:40;100679.38;;;7.82;100.00
64628;BME280;68467;50.960;0.314;2023-05-23T03:03:08;100684.23;;;7.90;100.00
64628;BME280;68467;50.960;0.314;2023-05-23T03:05:35;100682.00;;;7.96;100.00
64628;BME280;68467;50.960;0.314;2023-05-23T03:08:02;100685.81;;;8.02;100.00
64628;BME280;68467;50.960;0.314;2023-05-23T03:10:29;100685.83;;;7.84;100.00
64628;BME280;68467;50.960;0.314;2023-05-23T03:12:57;100687.52;;;7.43;100.00
64628;BME280;68467;50.960;0.314;2023-05-23T03:15:25;100687.04;;;7.61;100.00
64628;BME280;68467;50.960;0.314;2023-05-23T03:17:52;100692.21;;;7.88;100.00
64628;BME280;68467;50.960;0.314;2023-05-23T03:20:19;100688.50;;;7.91;100.00
64628;BME280;68467;50.960;0.314;2023-05-23T03:22:46;100694.74;;;7.49;100.00
64628;BME280;68467;50.960;0.314;2023-05-23T03:25:14;100694.16;;;7.79;100.00
64628;BME280;68467;50.960;0.314;2023-05-23T03:27:42;100694.52;;;7.70;100.00
64628;BME280;68467;50.960;0.314;2023-05-23T03:30:09;100694.26;;;8.48;100.00
64628;BME280;68467;50.960;0.314;2023-05-23T03:32:37;100693.22;;;7.48;100.00
64628;BME280;68467;50.960;0.314;2023-05-23T03:35:05;100691.05;;;8.46;100.00
64628;BME280;68467;50.960;0.314;2023-05-23T03:37:33;100694.17;;;7.25;100.00
64628;BME280;68467;50.960;0.314;2023-05-23T03:39:59;100698.16;;;7.75;100.00
64628;BME280;68467;50.960;0.314;2023-05-23T03:42:27;100698.22;;;7.14;100.00
64628;BME280;68467;50.960;0.314;2023-05-23T03:44:55;100698.48;;;8.13;100.00
64628;BME280;68467;50.960;0.314;2023-05-23T03:47:22;100693.02;;;7.44;100.00
64628;BME280;68467;50.960;0.314;2023-05-23T03:49:50;100697.65;;;8.27;100.00
64628;BME280;68467;50.960;0.314;2023-05-23T03:52:17;100695.65;;;7.33;100.00
64628;BME280;68467;50.960;0.314;2023-05-23T03:54:44;100696.85;;;7.50;100.00
64628;BME280;68467;50.960;0.314;2023-05-23T03:57:12;100698.74;;;7.41;100.00
64628;BME280;68467;50.960;0.314;2023-05-23T03:59:40;100698.36;;;7.74;100.00
64628;BME280;68467;50.960;0.314;2023-05-23T04:02:07;100702.68;;;7.71;100.00
64628;BME280;68467;50.960;0.314;2023-05-23T04:04:34;100705.29;;;7.35;100.00
64628;BME280;68467;50.960;0.314;2023-05-23T04:07:02;100704.96;;;7.37;100.00
64628;BME280;68467;50.960;0.314;2023-05-23T04:09:29;100710.31;;;7.41;100.00
64628;BME280;68467;50.960;0.314;2023-05-23T04:11:56;100712.18;;;8.20;100.00
64628;BME280;68467;50.960;0.314;2023-05-23T04:14:24;100712.17;;;8.40;100.00
64628;BME280;68467;50.960;0.314;2023-05-23T04:16:51;100714.19;;;7.27;100.00
64628;BME280;68467;50.960;0.314;2023-05-23T04:19:18;100713.96;;;7.84;100.00
64628;BME280;68467;50.960;0.314;2023-05-23T04:21:46;100719.93;;;8.04;100.00
64628;BME280;68467;50.960;0.314;2023-05-23T04:24:13;100721.30;;;8.01;100.00
64628;BME280;68467;50.960;0.314;2023-05-23T04:26:40;100718.91;;;7.55;100.00
64628;BME280;68467;50.960;0.314;2023-05-23T04:29:08;100721.77;;;7.06;100.00
64628;BME280;68467;50.960;0.314;2023-05-23T04:31:35;100724.13;;;7.44;100.00
64628;BME280;68467;50.960;0.314;2023-05-23T04:34:02;100728.65;;;7.39;100.00
64628;BME280;68467;50.960;0.314;2023-05-23T04:36:29;100729.28;;;7.38;100.00
64628;BME280;68467;50.960;0.314;2023-05-23T04:38:56;100726.43;;;7.50;100.00
64628;BME280;68467;50.960;0.314;2023-05-23T04:41:24;100731.52;;;7.10;100.00
64628;BME280;68467;50.960;0.314;2023-05-23T04:43:51;100732.02;;;7.04;100.00
64628;BME280;68467;50.960;0.314;2023-05-23T04:46:18;100731.55;;;7.15;100.00
64628;BME280;68467;50.960;0.314;2023-05-23T04:48:46;100739.01;;;6.29;100.00
64628;BME280;68467;50.960;0.314;2023-05-23T04:51:14;100741.57;;;6.57;100.00
64628;BME280;68467;50.960;0.314;2023-05-23T04:53:41;100741.05;;;7.76;100.00
64628;BME280;68467;50.960;0.314;2023-05-23T04:56:09;100745.21;;;7.88;100.00
64628;BME280;68467;50.960;0.314;2023-05-23T04:58:38;100744.10;;;6.88;100.00
64628;BME280;68467;50.960;0.314;2023-05-23T05:01:06;100737.22;;;7.23;100.00
64628;BME280;68467;50.960;0.314;2023-05-23T05:03:33;100743.69;;;6.76;100.00
64628;BME280;68467;50.960;0.314;2023-05-23T05:06:01;100736.81;;;7.39;100.00
64628;BME280;68467;50.960;0.314;2023-05-23T05:08:29;100741.22;;;7.36;100.00
64628;BME280;68467;50.960;0.314;2023-05-23T05:10:57;100746.04;;;7.56;100.00
64628;BME280;68467;50.960;0.314;2023-05-23T05:13:25;100745.23;;;7.51;100.00
64628;BME280;68467;50.960;0.314;2023-05-23T05:15:52;100751.97;;;6.75;100.00
64628;BME280;68467;50.960;0.314;2023-05-23T05:18:20;100751.18;;;6.99;100.00
64628;BME280;68467;50.960;0.314;2023-05-23T05:20:47;100749.55;;;7.56;100.00
64628;BME280;68467;50.960;0.314;2023-05-23T05:23:15;100757.11;;;7.21;100.00
64628;BME280;68467;50.960;0.314;2023-05-23T05:25:42;100756.24;;;7.34;100.00
64628;BME280;68467;50.960;0.314;2023-05-23T05:28:09;100761.26;;;7.70;100.00
64628;BME280;68467;50.960;0.314;2023-05-23T05:30:36;100760.54;;;7.91;100.00
64628;BME280;68467;50.960;0.314;2023-05-23T05:33:04;100765.96;;;7.83;100.00
64628;BME280;68467;50.960;0.314;2023-05-23T05:35:32;100762.56;;;8.07;100.00
64628;BME280;68467;50.960;0.314;2023-05-23T05:38:00;100767.89;;;7.48;100.00
64628;BME280;68467;50.960;0.314;2023-05-23T05:40:28;100773.46;;;7.05;100.00
64628;BME280;68467;50.960;0.314;2023-05-23T05:42:55;100765.24;;;7.83;100.00
64628;BME280;68467;50.960;0.314;2023-05-23T05:45:22;100773.83;;;7.95;100.00
64628;BME280;68467;50.960;0.314;2023-05-23T05:47:50;100770.80;;;7.79;100.00
64628;BME280;68467;50.960;0.314;2023-05-23T05:50:17;100781.09;;;8.06;100.00
64628;BME280;68467;50.960;0.314;2023-05-23T05:52:44;100779.68;;;7.81;100.00
64628;BME280;68467;50.960;0.314;2023-05-23T05:55:12;100785.08;;;7.61;100.00
64628;BME280;68467;50.960;0.314;2023-05-23T05:57:40;100789.67;;;8.30;100.00
64628;BME280;68467;50.960;0.314;2023-05-23T06:00:09;100793.44;;;8.56;100.00
64628;BME280;68467;50.960;0.314;2023-05-23T06:02:37;100795.10;;;7.42;100.00
64628;BME280;68467;50.960;0.314;2023-05-23T06:05:05;100807.37;;;8.15;100.00
64628;BME280;68467;50.960;0.314;2023-05-23T06:07:32;100808.04;;;7.73;100.00
64628;BME280;68467;50.960;0.314;2023-05-23T06:09:59;100805.35;;;7.84;100.00
64628;BME280;68467;50.960;0.314;2023-05-23T06:12:27;100802.45;;;8.29;100.00
64628;BME280;68467;50.960;0.314;2023-05-23T06:14:55;100802.86;;;8.52;100.00
64628;BME280;68467;50.960;0.314;2023-05-23T06:17:22;100806.16;;;7.93;100.00
64628;BME280;68467;50.960;0.314;2023-05-23T06:19:49;100803.71;;;7.53;100.00
64628;BME280;68467;50.960;0.314;2023-05-23T06:22:17;100807.14;;;7.96;100.00
64628;BME280;68467;50.960;0.314;2023-05-23T06:24:44;100807.16;;;7.94;100.00
64628;BME280;68467;50.960;0.314;2023-05-23T06:27:11;100805.34;;;8.77;100.00
64628;BME280;68467;50.960;0.314;2023-05-23T06:29:38;100805.74;;;8.20;100.00
64628;BME280;68467;50.960;0.314;2023-05-23T06:32:06;100800.32;;;8.57;100.00
64628;BME280;68467;50.960;0.314;2023-05-23T06:34:33;100800.07;;;8.16;100.00
64628;BME280;68467;50.960;0.314;2023-05-23T06:37:00;100804.58;;;8.73;100.00
64628;BME280;68467;50.960;0.314;2023-05-23T06:39:28;100795.92;;;8.36;100.00
64628;BME280;68467;50.960;0.314;2023-05-23T06:41:56;100800.74;;;8.52;100.00
64628;BME280;68467;50.960;0.314;2023-05-23T06:44:23;100807.65;;;8.87;100.00
64628;BME280;68467;50.960;0.314;2023-05-23T06:46:50;100811.32;;;8.50;100.00
64628;BME280;68467;50.960;0.314;2023-05-23T06:49:18;100809.92;;;8.39;100.00
64628;BME280;68467;50.960;0.314;2023-05-23T06:51:46;100805.30;;;8.94;100.00
64628;BME280;68467;50.960;0.314;2023-05-23T06:54:14;100812.93;;;9.01;100.00
64628;BME280;68467;50.960;0.314;2023-05-23T06:56:42;100802.97;;;9.29;100.00
64628;BME280;68467;50.960;0.314;2023-05-23T06:59:10;100811.71;;;8.65;100.00
64628;BME280;68467;50.960;0.314;2023-05-23T07:01:37;100813.54;;;9.40;100.00
64628;BME280;68467;50.960;0.314;2023-05-23T07:04:04;100819.96;;;9.43;100.00
64628;BME280;68467;50.960;0.314;2023-05-23T07:06:31;100816.76;;;9.84;100.00
64628;BME280;68467;50.960;0.314;2023-05-23T07:08:59;100811.13;;;10.41;100.00
64628;BME280;68467;50.960;0.314;2023-05-23T07:11:26;100815.68;;;10.24;100.00
64628;BME280;68467;50.960;0.314;2023-05-23T07:13:53;100812.18;;;10.31;100.00
64628;BME280;68467;50.960;0.314;2023-05-23T07:16:20;100807.55;;;10.25;100.00
64628;BME280;68467;50.960;0.314;2023-05-23T07:18:47;100809.25;;;10.37;100.00
64628;BME280;68467;50.960;0.314;2023-05-23T07:21:15;100809.66;;;10.07;100.00
64628;BME280;68467;50.960;0.314;2023-05-23T07:23:42;100816.29;;;9.46;100.00
64628;BME280;68467;50.960;0.314;2023-05-23T07:26:10;100814.02;;;10.23;100.00
64628;BME280;68467;50.960;0.314;2023-05-23T07:28:37;100813.79;;;10.27;100.00
64628;BME280;68467;50.960;0.314;2023-05-23T07:31:04;100813.12;;;10.96;100.00
64628;BME280;68467;50.960;0.314;2023-05-23T07:33:31;100811.45;;;10.28;100.00
64628;BME280;68467;50.960;0.314;2023-05-23T07:35:58;100815.84;;;9.94;100.00
64628;BME280;68467;50.960;0.314;2023-05-23T07:38:25;100815.88;;;9.85;100.00
64628;BME280;68467;50.960;0.314;2023-05-23T07:40:53;100818.40;;;9.75;100.00
64628;BME280;68467;50.960;0.314;2023-05-23T07:43:20;100817.18;;;10.43;100.00
64628;BME280;68467;50.960;0.314;2023-05-23T07:45:48;100816.79;;;11.07;100.00
64628;BME280;68467;50.960;0.314;2023-05-23T07:48:15;100814.31;;;11.33;100.00
64628;BME280;68467;50.960;0.314;2023-05-23T07:50:42;100817.30;;;10.38;100.00
64628;BME280;68467;50.960;0.314;2023-05-23T07:53:09;100818.48;;;10.57;100.00
64628;BME280;68467;50.960;0.314;2023-05-23T07:55:37;100819.16;;;10.33;100.00
64628;BME280;68467;50.960;0.314;2023-05-23T07:58:04;100812.41;;;11.02;100.00
64628;BME280;68467;50.960;0.314;2023-05-23T08:00:31;100817.09;;;11.65;100.00
64628;BME280;68467;50.960;0.314;2023-05-23T08:02:58;100819.97;;;11.27;100.00
64628;BME280;68467;50.960;0.314;2023-05-23T08:05:25;100818.34;;;11.87;100.00
64628;BME280;68467;50.960;0.314;2023-05-23T08:07:53;100820.42;;;12.91;100.00
64628;BME280;68467;50.960;0.314;2023-05-23T08:10:20;100823.20;;;11.61;100.00
64628;BME280;68467;50.960;0.314;2023-05-23T08:12:47;100816.85;;;12.88;100.00
64628;BME280;68467;50.960;0.314;2023-05-23T08:15:14;100820.69;;;12.63;100.00
64628;BME280;68467;50.960;0.314;2023-05-23T08:17:41;100815.08;;;12.41;100.00
64628;BME280;68467;50.960;0.314;2023-05-23T08:20:09;100820.44;;;12.46;100.00
64628;BME280;68467;50.960;0.314;2023-05-23T08:22:37;100818.28;;;12.48;100.00
64628;BME280;68467;50.960;0.314;2023-05-23T08:25:05;100817.46;;;13.10;100.00
64628;BME280;68467;50.960;0.314;2023-05-23T08:27:33;100818.77;;;11.82;100.00
64628;BME280;68467;50.960;0.314;2023-05-23T08:30:01;100821.71;;;12.26;100.00
64628;BME280;68467;50.960;0.314;2023-05-23T08:32:29;100824.30;;;12.36;100.00
64628;BME280;68467;50.960;0.314;2023-05-23T08:34:57;100826.85;;;11.94;100.00
64628;BME280;68467;50.960;0.314;2023-05-23T08:37:24;100823.54;;;12.24;100.00
64628;BME280;68467;50.960;0.314;2023-05-23T08:39:51;100831.64;;;11.69;100.00
64628;BME280;68467;50.960;0.314;2023-05-23T08:42:18;100835.63;;;12.15;100.00
64628;BME280;68467;50.960;0.314;2023-05-23T08:44:45;100838.76;;;11.76;100.00
64628;BME280;68467;50.960;0.314;2023-05-23T08:47:15;100842.15;;;11.11;100.00
64628;BME280;68467;50.960;0.314;2023-05-23T08:49:43;100837.45;;;10.84;100.00
64628;BME280;68467;50.960;0.314;2023-05-23T08:52:12;100839.44;;;11.46;100.00
64628;BME280;68467;50.960;0.314;2023-05-23T08:54:41;100840.48;;;12.67;100.00
64628;BME280;68467;50.960;0.314;2023-05-23T08:57:09;100837.89;;;12.49;100.00
64628;BME280;68467;50.960;0.314;2023-05-23T08:59:38;100842.75;;;11.65;100.00
64628;BME280;68467;50.960;0.314;2023-05-23T09:02:09;100837.84;;;12.81;100.00
64628;BME280;68467;50.960;0.314;2023-05-23T09:04:37;100838.00;;;13.23;100.00
64628;BME280;68467;50.960;0.314;2023-05-23T09:07:05;100842.70;;;12.92;100.00
64628;BME280;68467;50.960;0.314;2023-05-23T09:09:33;100838.92;;;12.78;100.00
64628;BME280;68467;50.960;0.314;2023-05-23T09:12:00;100839.45;;;13.46;100.00
64628;BME280;68467;50.960;0.314;2023-05-23T09:14:27;100841.82;;;13.13;100.00
64628;BME280;68467;50.960;0.314;2023-05-23T09:17:00;100849.31;;;12.70;100.00
64628;BME280;68467;50.960;0.314;2023-05-23T09:19:28;100847.58;;;12.51;100.00
64628;BME280;68467;50.960;0.314;2023-05-23T09:26:22;100853.58;;;13.26;100.00
64628;BME280;68467;50.960;0.314;2023-05-23T09:28:50;100855.68;;;13.01;100.00
64628;BME280;68467;50.960;0.314;2023-05-23T09:31:18;100857.41;;;13.46;100.00
64628;BME280;68467;50.960;0.314;2023-05-23T09:33:46;100857.86;;;12.95;100.00
64628;BME280;68467;50.960;0.314;2023-05-23T09:36:13;100853.98;;;13.24;100.00
64628;BME280;68467;50.960;0.314;2023-05-23T09:38:43;100857.89;;;13.61;100.00
64628;BME280;68467;50.960;0.314;2023-05-23T09:41:11;100850.45;;;14.39;100.00
64628;BME280;68467;50.960;0.314;2023-05-23T09:43:39;100854.38;;;14.22;100.00
64628;BME280;68467;50.960;0.314;2023-05-23T09:46:07;100859.26;;;14.12;100.00
64628;BME280;68467;50.960;0.314;2023-05-23T09:48:34;100860.35;;;14.59;100.00
64628;BME280;68467;50.960;0.314;2023-05-23T09:51:04;100863.89;;;14.68;100.00
64628;BME280;68467;50.960;0.314;2023-05-23T09:53:31;100861.54;;;14.54;100.00
64628;BME280;68467;50.960;0.314;2023-05-23T09:55:58;100858.26;;;15.58;100.00
64628;BME280;68467;50.960;0.314;2023-05-23T09:58:28;100868.17;;;15.23;100.00
64628;BME280;68467;50.960;0.314;2023-05-23T10:00:56;100871.34;;;14.30;100.00
64628;BME280;68467;50.960;0.314;2023-05-23T10:03:26;100873.90;;;14.02;100.00
64628;BME280;68467;50.960;0.314;2023-05-23T10:05:59;100875.49;;;13.63;100.00
64628;BME280;68467;50.960;0.314;2023-05-23T10:08:33;100876.59;;;13.55;100.00
64628;BME280;68467;50.960;0.314;2023-05-23T10:13:41;100883.78;;;13.45;100.00
64628;BME280;68467;50.960;0.314;2023-05-23T10:16:19;100884.36;;;13.37;100.00
64628;BME280;68467;50.960;0.314;2023-05-23T10:18:50;100878.95;;;14.50;100.00
64628;BME280;68467;50.960;0.314;2023-05-23T10:21:24;100875.55;;;13.90;100.00
64628;BME280;68467;50.960;0.314;2023-05-23T10:23:57;100880.60;;;12.40;100.00
64628;BME280;68467;50.960;0.314;2023-05-23T10:26:25;100871.53;;;14.63;100.00
64628;BME280;68467;50.960;0.314;2023-05-23T10:28:53;100872.85;;;14.90;100.00
64628;BME280;68467;50.960;0.314;2023-05-23T10:31:21;100874.62;;;14.38;100.00
64628;BME280;68467;50.960;0.314;2023-05-23T10:33:53;100874.59;;;14.14;100.00
64628;BME280;68467;50.960;0.314;2023-05-23T10:40:45;100884.12;;;14.08;100.00
64628;BME280;68467;50.960;0.314;2023-05-23T10:43:24;100886.51;;;14.04;100.00
64628;BME280;68467;50.960;0.314;2023-05-23T10:45:54;100890.24;;;14.01;100.00
64628;BME280;68467;50.960;0.314;2023-05-23T10:48:31;100888.36;;;13.67;100.00
64628;BME280;68467;50.960;0.314;2023-05-23T10:51:02;100894.38;;;13.48;100.00
64628;BME280;68467;50.960;0.314;2023-05-23T10:53:30;100891.96;;;13.89;100.00
64628;BME280;68467;50.960;0.314;2023-05-23T10:55:58;100886.47;;;14.57;100.00
64628;BME280;68467;50.960;0.314;2023-05-23T10:58:29;100891.14;;;13.83;100.00
64628;BME280;68467;50.960;0.314;2023-05-23T11:01:00;100896.92;;;13.83;100.00
64628;BME280;68467;50.960;0.314;2023-05-23T11:03:36;100896.81;;;13.78;100.00
64628;BME280;68467;50.960;0.314;2023-05-23T11:06:04;100893.54;;;13.24;100.00
64628;BME280;68467;50.960;0.314;2023-05-23T11:08:41;100899.56;;;13.26;100.00
64628;BME280;68467;50.960;0.314;2023-05-23T11:11:09;100900.66;;;13.10;100.00
64628;BME280;68467;50.960;0.314;2023-05-23T11:14:08;100903.91;;;13.29;100.00
64628;BME280;68467;50.960;0.314;2023-05-23T11:16:40;100900.73;;;14.38;100.00
64628;BME280;68467;50.960;0.314;2023-05-23T11:19:25;100904.80;;;13.66;100.00
64628;BME280;68467;50.960;0.314;2023-05-23T11:21:54;100901.33;;;13.62;100.00
64628;BME280;68467;50.960;0.314;2023-05-23T11:24:23;100900.02;;;12.75;100.00
64628;BME280;68467;50.960;0.314;2023-05-23T11:26:53;100903.43;;;14.06;100.00
64628;BME280;68467;50.960;0.314;2023-05-23T11:29:20;100906.96;;;13.82;100.00
64628;BME280;68467;50.960;0.314;2023-05-23T11:31:48;100906.38;;;15.34;100.00
64628;BME280;68467;50.960;0.314;2023-05-23T11:34:15;100900.02;;;14.51;100.00
64628;BME280;68467;50.960;0.314;2023-05-23T11:36:43;100911.54;;;13.29;100.00
64628;BME280;68467;50.960;0.314;2023-05-23T11:39:12;100911.52;;;13.96;100.00
64628;BME280;68467;50.960;0.314;2023-05-23T11:41:41;100909.92;;;13.91;100.00
64628;BME280;68467;50.960;0.314;2023-05-23T11:44:11;100911.17;;;13.27;100.00
64628;BME280;68467;50.960;0.314;2023-05-23T11:46:39;100915.14;;;12.49;100.00
64628;BME280;68467;50.960;0.314;2023-05-23T11:49:14;100909.62;;;14.50;100.00
64628;BME280;68467;50.960;0.314;2023-05-23T11:51:41;100905.57;;;14.87;100.00
64628;BME280;68467;50.960;0.314;2023-05-23T11:54:08;100906.98;;;15.05;100.00
64628;BME280;68467;50.960;0.314;2023-05-23T11:56:39;100907.80;;;15.13;100.00
64628;BME280;68467;50.960;0.314;2023-05-23T11:59:06;100908.81;;;14.40;100.00
64628;BME280;68467;50.960;0.314;2023-05-23T12:01:36;100907.18;;;14.35;100.00
64628;BME280;68467;50.960;0.314;2023-05-23T12:04:08;100900.03;;;15.08;100.00
64628;BME280;68467;50.960;0.314;2023-05-23T12:06:37;100896.86;;;15.05;100.00
64628;BME280;68467;50.960;0.314;2023-05-23T12:09:05;100896.11;;;15.71;100.00
64628;BME280;68467;50.960;0.314;2023-05-23T12:11:34;100895.74;;;14.40;100.00
64628;BME280;68467;50.960;0.314;2023-05-23T12:14:01;100896.03;;;14.97;100.00
64628;BME280;68467;50.960;0.314;2023-05-23T12:16:29;100896.25;;;16.12;100.00
64628;BME280;68467;50.960;0.314;2023-05-23T12:18:57;100894.91;;;17.12;98.92
64628;BME280;68467;50.960;0.314;2023-05-23T12:21:25;100896.58;;;17.18;97.84
64628;BME280;68467;50.960;0.314;2023-05-23T12:23:53;100899.94;;;17.00;96.87
64628;BME280;68467;50.960;0.314;2023-05-23T12:26:20;100898.39;;;16.41;97.00
64628;BME280;68467;50.960;0.314;2023-05-23T12:28:48;100901.37;;;15.61;97.58
64628;BME280;68467;50.960;0.314;2023-05-23T12:31:17;100903.44;;;15.12;99.24
64628;BME280;68467;50.960;0.314;2023-05-23T12:33:46;100905.74;;;16.09;97.30
64628;BME280;68467;50.960;0.314;2023-05-23T12:36:13;100900.30;;;15.76;94.82
64628;BME280;68467;50.960;0.314;2023-05-23T12:38:42;100895.79;;;16.41;96.63
64628;BME280;68467;50.960;0.314;2023-05-23T12:41:11;100895.28;;;16.89;94.20
64628;BME280;68467;50.960;0.314;2023-05-23T12:43:39;100896.70;;;16.36;93.80
64628;BME280;68467;50.960;0.314;2023-05-23T12:46:07;100896.91;;;16.15;96.32
64628;BME280;68467;50.960;0.314;2023-05-23T12:48:34;100889.48;;;16.66;96.86
64628;BME280;68467;50.960;0.314;2023-05-23T12:51:02;100886.76;;;16.52;95.35
64628;BME280;68467;50.960;0.314;2023-05-23T12:53:29;100887.41;;;15.24;95.87
64628;BME280;68467;50.960;0.314;2023-05-23T12:55:57;100892.80;;;16.15;95.03
64628;BME280;68467;50.960;0.314;2023-05-23T12:58:25;100896.49;;;16.65;93.06
64628;BME280;68467;50.960;0.314;2023-05-23T13:00:52;100893.59;;;16.20;93.11
64628;BME280;68467;50.960;0.314;2023-05-23T13:03:19;100890.16;;;17.05;90.87